Terminal Aerodrome Forecast
Issued by NWS

Home | Current Version | Previous Version | Text Only | Print | Product List | Glossary On
Versions: 1 2 3 4 5 6 7 8 9 10 11 12 13 14 15 16
000
FTUS43 KIND 252320
TAFHUF
TAF
KHUF 252320Z 2600/2624 29009G18KT P6SM SCT120
     FM260200 VRB05KT P6SM SCT250
     FM261500 18010KT P6SM FEW250
     FM261800 20013G21KT P6SM SCT200
     FM262300 20009KT P6SM BKN130=

USA.gov is the U.S. government's official web portal to all federal, state and local government web resources and services.